Time;durP1;ratioP1;P1;durP2;ratioP2;P2;SDS_P1;SDS_P2;PMS_P1;PMS_P2;Temp;Humidity;BMP_temperature;BMP_pressure;BME280_temperature;BME280_humidity;BME280_pressure;Samples;Min_cycle;Max_cycle;Signal;HPM_P1;HPM_P2
2024/01/15 00:00:14;;;;;;;6.43;0.70;;;;;;;;;;4937355;29;20425;-83
2024/01/15 00:02:40;;;;;;;4.40;0.90;;;;;;;;;;4937191;29;20520;-82
2024/01/15 00:05:06;;;;;;;4.17;1.23;;;;;;;;;;4937369;29;20422;-85
2024/01/15 00:07:32;;;;;;;1.07;0.63;;;;;;;;;;4937258;29;20413;-83
2024/01/15 00:09:58;;;;;;;11.27;1.40;;;;;;;;;;4937225;29;20416;-82
2024/01/15 00:12:24;;;;;;;5.47;1.27;;;;;;;;;;4936903;29;20421;-81
2024/01/15 00:14:49;;;;;;;3.60;0.90;;;;;;;;;;4937011;29;20482;-81
2024/01/15 00:17:15;;;;;;;7.87;0.73;;;;;;;;;;4937148;29;20775;-84
2024/01/15 00:19:41;;;;;;;7.20;0.70;;;;;;;;;;4937051;29;20416;-84
2024/01/15 00:22:07;;;;;;;11.43;2.00;;;;;;;;;;4936980;29;20446;-82
2024/01/15 00:24:33;;;;;;;4.53;1.13;;;;;;;;;;4936982;29;20512;-82
2024/01/15 00:26:59;;;;;;;4.00;0.97;;;;;;;;;;4936582;29;21115;-81
2024/01/15 00:29:25;;;;;;;7.40;0.87;;;;;;;;;;4935602;29;20435;-82
2024/01/15 00:31:51;;;;;;;4.97;2.10;;;;;;;;;;4936298;29;20413;-82
2024/01/15 00:34:17;;;;;;;6.00;1.33;;;;;;;;;;4936531;29;20481;-82
2024/01/15 00:36:43;;;;;;;5.77;1.80;;;;;;;;;;4936674;29;20888;-83
2024/01/15 00:39:10;;;;;;;2.30;0.73;;;;;;;;;;4936738;29;20451;-84
2024/01/15 00:41:36;;;;;;;5.90;0.63;;;;;;;;;;4936402;29;20406;-81
2024/01/15 00:44:02;;;;;;;4.33;1.27;;;;;;;;;;4936570;29;20537;-82
2024/01/15 00:46:28;;;;;;;10.77;1.30;;;;;;;;;;4935464;29;20420;-80
2024/01/15 00:48:54;;;;;;;4.37;0.60;;;;;;;;;;4936633;29;20779;-79
2024/01/15 00:51:20;;;;;;;5.73;1.23;;;;;;;;;;4936602;29;20480;-81
2024/01/15 00:53:46;;;;;;;4.17;0.60;;;;;;;;;;4935209;29;20559;-80
2024/01/15 00:56:12;;;;;;;2.77;1.10;;;;;;;;;;4906235;28;20474;-82
2024/01/15 00:58:38;;;;;;;7.33;1.30;;;;;;;;;;4955584;28;20416;-80
2024/01/15 01:01:04;;;;;;;3.73;1.50;;;;;;;;;;4955619;28;20420;-81
2024/01/15 01:03:33;;;;;;;6.40;1.23;;;;;;;;;;4955319;28;20454;-81
2024/01/15 01:05:59;;;;;;;7.33;1.17;;;;;;;;;;4954959;28;20942;-81
2024/01/15 01:08:25;;;;;;;9.87;1.37;;;;;;;;;;4929230;29;20433;-79
2024/01/15 01:10:50;;;;;;;8.23;0.83;;;;;;;;;;4916978;29;20996;-80
2024/01/15 01:13:16;;;;;;;8.90;1.53;;;;;;;;;;4915992;29;20465;-80
2024/01/15 01:15:42;;;;;;;13.83;1.37;;;;;;;;;;4915857;29;20428;-80
2024/01/15 01:18:08;;;;;;;11.33;1.73;;;;;;;;;;4917147;29;20870;-81
2024/01/15 01:20:34;;;;;;;8.77;1.33;;;;;;;;;;4917120;29;20516;-80
2024/01/15 01:23:00;;;;;;;5.30;0.73;;;;;;;;;;4917119;29;20421;-80
2024/01/15 01:25:26;;;;;;;7.30;1.50;;;;;;;;;;4917010;29;20502;-80
2024/01/15 01:27:52;;;;;;;5.23;0.80;;;;;;;;;;4916652;29;20480;-81
2024/01/15 01:30:18;;;;;;;11.40;1.80;;;;;;;;;;4917011;29;20428;-81
2024/01/15 01:32:43;;;;;;;2.47;0.67;;;;;;;;;;4915789;29;20434;-80
2024/01/15 01:35:09;;;;;;;9.30;2.67;;;;;;;;;;4916831;29;20616;-81
2024/01/15 01:37:35;;;;;;;6.63;0.90;;;;;;;;;;4915606;29;20426;-80
2024/01/15 01:40:01;;;;;;;10.23;1.20;;;;;;;;;;4916802;29;21323;-79
2024/01/15 01:42:27;;;;;;;7.50;1.73;;;;;;;;;;4916597;29;20425;-80
2024/01/15 01:44:53;;;;;;;7.07;1.27;;;;;;;;;;4916819;29;20425;-80
2024/01/15 01:47:19;;;;;;;10.37;1.80;;;;;;;;;;4916750;29;20416;-79
2024/01/15 01:49:46;;;;;;;13.10;2.10;;;;;;;;;;4916666;29;20423;-79
2024/01/15 01:52:12;;;;;;;3.83;0.77;;;;;;;;;;4915498;29;20414;-80
2024/01/15 01:54:39;;;;;;;7.30;0.90;;;;;;;;;;4916709;29;20482;-80
2024/01/15 01:57:09;;;;;;;4.00;1.23;;;;;;;;;;4926388;29;20604;-79
2024/01/15 01:59:35;;;;;;;4.73;0.73;;;;;;;;;;4954808;28;20422;-80
2024/01/15 02:02:03;;;;;;;9.83;1.03;;;;;;;;;;4954378;28;20504;-80
2024/01/15 02:04:30;;;;;;;4.80;1.50;;;;;;;;;;4954749;28;20421;-80
2024/01/15 02:06:56;;;;;;;5.10;1.23;;;;;;;;;;4969475;28;20433;-80
2024/01/15 02:09:22;;;;;;;10.70;2.80;;;;;;;;;;4954639;28;20419;-79
2024/01/15 02:11:48;;;;;;;7.33;0.80;;;;;;;;;;4954201;28;20414;-80
2024/01/15 02:14:14;;;;;;;3.30;0.50;;;;;;;;;;4954621;28;20470;-80
2024/01/15 02:16:40;;;;;;;12.30;1.70;;;;;;;;;;4954527;28;20409;-81
2024/01/15 02:19:28;;;;;;;6.57;1.67;;;;;;;;;;4955440;28;20789;-79
2024/01/15 02:21:54;;;;;;;6.10;2.50;;;;;;;;;;4939205;29;20699;-79
2024/01/15 02:24:20;;;;;;;3.83;0.90;;;;;;;;;;4939305;29;20513;-81
2024/01/15 02:26:46;;;;;;;2.93;0.80;;;;;;;;;;4953534;28;20484;-81
2024/01/15 02:29:12;;;;;;;2.70;0.67;;;;;;;;;;4939201;28;20428;-80
2024/01/15 02:31:38;;;;;;;4.10;0.77;;;;;;;;;;4938763;28;20989;-82
2024/01/15 02:34:04;;;;;;;3.80;0.37;;;;;;;;;;4938941;29;20673;-81
2024/01/15 02:36:30;;;;;;;2.40;0.50;;;;;;;;;;4937782;29;20519;-82
2024/01/15 02:38:56;;;;;;;3.00;0.63;;;;;;;;;;4938906;29;20405;-83
2024/01/15 02:41:22;;;;;;;2.80;0.33;;;;;;;;;;4937325;29;20543;-82
2024/01/15 02:43:48;;;;;;;4.20;1.20;;;;;;;;;;4938926;29;20458;-81
2024/01/15 02:46:16;;;;;;;3.03;0.87;;;;;;;;;;4938810;29;20893;-82
2024/01/15 02:48:42;;;;;;;3.37;0.67;;;;;;;;;;4938822;29;20414;-82
2024/01/15 02:51:07;;;;;;;5.33;1.70;;;;;;;;;;4938799;29;20428;-82
2024/01/15 02:53:33;;;;;;;8.63;1.37;;;;;;;;;;4938623;29;21089;-82
2024/01/15 02:55:59;;;;;;;5.70;1.30;;;;;;;;;;4938428;29;20426;-80
2024/01/15 02:58:25;;;;;;;4.03;0.63;;;;;;;;;;4938566;29;20422;-81
2024/01/15 03:00:51;;;;;;;5.93;0.70;;;;;;;;;;4938685;29;20427;-81
2024/01/15 03:03:17;;;;;;;5.03;0.53;;;;;;;;;;4937050;29;20993;-82
2024/01/15 03:05:43;;;;;;;8.03;0.73;;;;;;;;;;4938619;29;20425;-80
2024/01/15 03:08:09;;;;;;;3.00;0.73;;;;;;;;;;4937350;29;20422;-81
2024/01/15 03:10:35;;;;;;;5.80;0.70;;;;;;;;;;4936910;29;20993;-81
2024/01/15 03:13:00;;;;;;;5.37;0.50;;;;;;;;;;4938444;29;20434;-80
2024/01/15 03:15:26;;;;;;;9.43;1.10;;;;;;;;;;4936299;29;20418;-80
2024/01/15 03:17:52;;;;;;;2.77;0.83;;;;;;;;;;4938311;29;20960;-80
2024/01/15 03:20:18;;;;;;;2.00;0.97;;;;;;;;;;4938378;29;20417;-80
2024/01/15 03:22:44;;;;;;;5.00;0.90;;;;;;;;;;4937036;29;20422;-80
2024/01/15 03:25:10;;;;;;;3.30;0.60;;;;;;;;;;4937107;29;20424;-80
2024/01/15 03:27:36;;;;;;;5.13;0.30;;;;;;;;;;4937778;29;20410;-80
2024/01/15 03:30:02;;;;;;;2.67;0.70;;;;;;;;;;4937942;29;20433;-80
2024/01/15 03:32:31;;;;;;;3.53;1.30;;;;;;;;;;4938001;29;20466;-80
2024/01/15 03:34:57;;;;;;;4.47;1.30;;;;;;;;;;4938089;29;20477;-80
2024/01/15 03:37:23;;;;;;;7.23;1.33;;;;;;;;;;4938105;29;20409;-80
2024/01/15 03:39:49;;;;;;;11.40;0.93;;;;;;;;;;4937972;29;20840;-80
2024/01/15 03:42:15;;;;;;;8.37;2.00;;;;;;;;;;4937641;29;20468;-80
2024/01/15 03:44:41;;;;;;;8.40;1.20;;;;;;;;;;4937880;29;20427;-81
2024/01/15 03:47:07;;;;;;;7.40;2.67;;;;;;;;;;4937925;29;20757;-81
2024/01/15 03:49:33;;;;;;;5.20;2.17;;;;;;;;;;4937870;29;20421;-80
2024/01/15 03:51:59;;;;;;;7.23;1.07;;;;;;;;;;4937764;29;20409;-79
2024/01/15 03:54:25;;;;;;;7.97;1.00;;;;;;;;;;4937754;29;20481;-80
2024/01/15 03:56:51;;;;;;;5.60;0.90;;;;;;;;;;4937396;29;20496;-80
2024/01/15 03:59:17;;;;;;;3.40;0.93;;;;;;;;;;4937709;29;20971;-80
2024/01/15 04:01:48;;;;;;;5.67;1.57;;;;;;;;;;4937468;29;20468;-80
2024/01/15 04:04:14;;;;;;;8.17;0.80;;;;;;;;;;4936353;29;20953;-78
2024/01/15 04:06:40;;;;;;;4.73;1.40;;;;;;;;;;4937483;29;20514;-80
2024/01/15 04:09:06;;;;;;;8.43;2.10;;;;;;;;;;4937362;29;20428;-80
2024/01/15 04:11:32;;;;;;;8.43;1.17;;;;;;;;;;4953087;29;20528;-80
2024/01/15 04:13:58;;;;;;;6.90;1.23;;;;;;;;;;4971234;28;20654;-81
2024/01/15 04:16:24;;;;;;;4.97;1.17;;;;;;;;;;4971401;28;20765;-80
2024/01/15 04:18:50;;;;;;;10.90;1.77;;;;;;;;;;4956426;28;20909;-80
2024/01/15 04:21:18;;;;;;;8.20;1.53;;;;;;;;;;4956454;28;20409;-81
2024/01/15 04:23:44;;;;;;;9.10;1.43;;;;;;;;;;4956329;28;20413;-81
2024/01/15 04:26:10;;;;;;;6.43;2.60;;;;;;;;;;4955962;28;20426;-80
2024/01/15 04:28:36;;;;;;;9.33;2.20;;;;;;;;;;4956266;28;20422;-80
2024/01/15 04:31:01;;;;;;;12.57;2.60;;;;;;;;;;4956232;28;20551;-80
2024/01/15 04:33:27;;;;;;;9.33;1.70;;;;;;;;;;4956094;28;20805;-79
2024/01/15 04:35:53;;;;;;;10.83;1.50;;;;;;;;;;4956139;28;20417;-80
2024/01/15 04:38:22;;;;;;;12.90;1.90;;;;;;;;;;4956005;28;20408;-80
2024/01/15 04:40:48;;;;;;;11.60;2.47;;;;;;;;;;4969878;28;20987;-80
2024/01/15 04:43:14;;;;;;;8.53;1.20;;;;;;;;;;4955981;28;20515;-80
2024/01/15 04:45:40;;;;;;;12.20;1.57;;;;;;;;;;4970790;28;20454;-80
2024/01/15 04:48:07;;;;;;;11.80;1.70;;;;;;;;;;4955833;28;20419;-80
2024/01/15 04:50:33;;;;;;;11.10;1.33;;;;;;;;;;4955854;28;20431;-79
2024/01/15 04:52:59;;;;;;;10.20;1.70;;;;;;;;;;4955813;28;20910;-79
2024/01/15 04:55:25;;;;;;;7.10;1.27;;;;;;;;;;4955217;28;20518;-80
2024/01/15 04:57:50;;;;;;;7.17;1.37;;;;;;;;;;4916240;28;20480;-81
2024/01/15 05:00:16;;;;;;;7.57;2.30;;;;;;;;;;4955594;28;20912;-81
2024/01/15 05:02:42;;;;;;;6.30;1.47;;;;;;;;;;4970212;28;20468;-80
2024/01/15 05:05:08;;;;;;;8.17;1.93;;;;;;;;;;4955586;28;20421;-80
2024/01/15 05:07:34;;;;;;;11.20;1.80;;;;;;;;;;4955615;28;20418;-81
2024/01/15 05:10:00;;;;;;;13.23;1.90;;;;;;;;;;4955196;28;20425;-80
2024/01/15 05:12:26;;;;;;;5.40;1.37;;;;;;;;;;4955484;28;20412;-81
2024/01/15 05:14:52;;;;;;;8.50;1.83;;;;;;;;;;4955384;28;20972;-81
2024/01/15 05:17:18;;;;;;;17.07;2.47;;;;;;;;;;4955500;28;20412;-80
2024/01/15 05:19:44;;;;;;;9.10;1.87;;;;;;;;;;4955311;28;20837;-81
2024/01/15 05:22:10;;;;;;;13.33;2.30;;;;;;;;;;4955366;28;20420;-81
2024/01/15 05:24:35;;;;;;;9.03;1.43;;;;;;;;;;4955300;28;20420;-81
2024/01/15 05:27:01;;;;;;;16.70;2.30;;;;;;;;;;4954999;28;20425;-81
2024/01/15 05:29:27;;;;;;;9.47;2.03;;;;;;;;;;4955340;28;20429;-80
2024/01/15 05:31:53;;;;;;;7.67;1.80;;;;;;;;;;4955293;28;20872;-81
2024/01/15 05:34:19;;;;;;;9.10;1.60;;;;;;;;;;4969915;28;20476;-80
2024/01/15 05:36:47;;;;;;;4.50;1.70;;;;;;;;;;4955243;28;20460;-80
2024/01/15 05:39:13;;;;;;;8.43;1.17;;;;;;;;;;4955101;28;20427;-80
2024/01/15 05:41:39;;;;;;;9.90;1.83;;;;;;;;;;4954720;28;20409;-80
2024/01/15 05:44:05;;;;;;;10.33;2.57;;;;;;;;;;4955052;28;20465;-81
2024/01/15 05:46:31;;;;;;;14.43;1.47;;;;;;;;;;4955079;28;20480;-80
2024/01/15 05:48:57;;;;;;;10.60;1.53;;;;;;;;;;4954954;28;20425;-81
2024/01/15 05:51:23;;;;;;;16.73;3.00;;;;;;;;;;4955052;28;20419;-80
2024/01/15 05:53:49;;;;;;;13.03;1.27;;;;;;;;;;4954725;28;20499;-80
2024/01/15 05:56:15;;;;;;;12.23;1.90;;;;;;;;;;4954692;28;20407;-80
2024/01/15 05:58:41;;;;;;;6.83;1.43;;;;;;;;;;4954914;28;20420;-81
2024/01/15 06:01:07;;;;;;;14.47;1.90;;;;;;;;;;4954667;28;20898;-82
2024/01/15 06:03:33;;;;;;;12.23;2.10;;;;;;;;;;4954819;28;20421;-81
2024/01/15 06:05:59;;;;;;;17.33;2.10;;;;;;;;;;4955129;28;20421;-81
2024/01/15 06:08:26;;;;;;;8.90;2.00;;;;;;;;;;4954861;28;20418;-81
2024/01/15 06:10:52;;;;;;;9.27;1.70;;;;;;;;;;4969313;28;20519;-81
2024/01/15 06:13:18;;;;;;;7.60;1.90;;;;;;;;;;4954635;28;20512;-81
2024/01/15 06:15:44;;;;;;;7.53;1.90;;;;;;;;;;4969647;28;20913;-82
2024/01/15 06:18:10;;;;;;;10.30;2.80;;;;;;;;;;4954759;28;20417;-81
2024/01/15 06:20:36;;;;;;;12.30;1.80;;;;;;;;;;4954649;28;20420;-80
2024/01/15 06:23:01;;;;;;;12.80;1.90;;;;;;;;;;4954704;28;20469;-81
2024/01/15 06:25:27;;;;;;;7.30;1.93;;;;;;;;;;4954120;28;20420;-81
2024/01/15 06:27:53;;;;;;;10.47;1.70;;;;;;;;;;4954442;28;20499;-80
2024/01/15 06:30:19;;;;;;;7.50;1.47;;;;;;;;;;4954634;28;20852;-81
2024/01/15 06:32:45;;;;;;;13.07;1.73;;;;;;;;;;4935890;28;20430;-81
2024/01/15 06:35:11;;;;;;;10.70;2.00;;;;;;;;;;4934496;29;20977;-82
2024/01/15 06:37:40;;;;;;;16.23;2.20;;;;;;;;;;4935176;29;20771;-82
2024/01/15 06:40:15;;;;;;;10.50;1.80;;;;;;;;;;4935212;29;20932;-80
2024/01/15 06:42:53;;;;;;;8.97;2.00;;;;;;;;;;4935249;29;20443;-80
2024/01/15 06:45:19;;;;;;;5.00;0.77;;;;;;;;;;4929010;29;20513;-81
2024/01/15 06:47:45;;;;;;;9.30;1.00;;;;;;;;;;4922811;29;20509;-81
2024/01/15 06:50:11;;;;;;;5.50;2.47;;;;;;;;;;4939980;29;20419;-81
2024/01/15 06:52:37;;;;;;;7.00;2.03;;;;;;;;;;4925917;29;20420;-82
2024/01/15 06:55:03;;;;;;;11.13;1.43;;;;;;;;;;4923800;29;21039;-81
2024/01/15 06:57:29;;;;;;;11.90;1.53;;;;;;;;;;4925568;29;20413;-81
2024/01/15 06:59:55;;;;;;;11.13;2.27;;;;;;;;;;4925328;29;20425;-81
2024/01/15 07:02:21;;;;;;;13.03;1.80;;;;;;;;;;4923823;29;20858;-80
2024/01/15 07:04:47;;;;;;;7.87;1.70;;;;;;;;;;4927447;29;20409;-81
2024/01/15 07:07:13;;;;;;;9.77;2.27;;;;;;;;;;4927326;29;20745;-80
2024/01/15 07:09:39;;;;;;;10.67;1.47;;;;;;;;;;4927233;29;20419;-82
2024/01/15 07:12:05;;;;;;;11.30;2.00;;;;;;;;;;4929435;29;20417;-82
2024/01/15 07:14:31;;;;;;;8.40;1.37;;;;;;;;;;4911599;28;20480;-81
2024/01/15 07:16:57;;;;;;;10.20;1.33;;;;;;;;;;4908965;29;20419;-81
2024/01/15 07:19:23;;;;;;;8.23;1.20;;;;;;;;;;4927357;29;20420;-81
2024/01/15 07:21:49;;;;;;;4.53;1.20;;;;;;;;;;4928792;29;20762;-80
2024/01/15 07:24:15;;;;;;;14.63;1.97;;;;;;;;;;4920390;29;20935;-82
2024/01/15 07:26:41;;;;;;;8.43;1.43;;;;;;;;;;4928527;29;20408;-80
2024/01/15 07:29:08;;;;;;;8.60;1.50;;;;;;;;;;4934311;29;20817;-81
2024/01/15 07:31:34;;;;;;;9.57;2.07;;;;;;;;;;4929743;29;20409;-81
2024/01/15 07:34:00;;;;;;;4.87;0.90;;;;;;;;;;4931189;29;20486;-82
2024/01/15 07:36:26;;;;;;;6.33;0.80;;;;;;;;;;4937570;29;20777;-79
2024/01/15 07:38:51;;;;;;;5.93;0.77;;;;;;;;;;4936064;29;20851;-80
2024/01/15 07:41:17;;;;;;;5.03;1.20;;;;;;;;;;4936585;29;20446;-81
2024/01/15 07:43:43;;;;;;;6.93;0.73;;;;;;;;;;4937952;29;20440;-80
2024/01/15 07:46:09;;;;;;;4.80;0.93;;;;;;;;;;4937940;29;20428;-81
2024/01/15 07:48:35;;;;;;;4.83;1.20;;;;;;;;;;4935305;29;20435;-81
2024/01/15 07:51:01;;;;;;;6.13;1.90;;;;;;;;;;4929159;29;20425;-81
2024/01/15 07:53:27;;;;;;;4.33;0.50;;;;;;;;;;4937190;29;20434;-81
2024/01/15 07:55:53;;;;;;;11.20;1.50;;;;;;;;;;4936969;29;20918;-80
2024/01/15 07:58:19;;;;;;;4.83;1.27;;;;;;;;;;4937297;29;20413;-82
2024/01/15 08:00:45;;;;;;;8.97;1.70;;;;;;;;;;4931307;29;20453;-83
2024/01/15 08:03:12;;;;;;;8.20;1.37;;;;;;;;;;4923873;29;20473;-81
2024/01/15 08:05:38;;;;;;;4.30;0.67;;;;;;;;;;4918148;29;20419;-81
2024/01/15 08:08:04;;;;;;;2.70;1.57;;;;;;;;;;4932829;29;20526;-81
2024/01/15 08:10:30;;;;;;;8.23;0.93;;;;;;;;;;4918018;29;20516;-81
2024/01/15 08:12:56;;;;;;;5.50;0.70;;;;;;;;;;4918073;29;20517;-82
2024/01/15 08:15:22;;;;;;;6.50;0.40;;;;;;;;;;4922514;29;20485;-84
2024/01/15 08:17:47;;;;;;;8.23;1.13;;;;;;;;;;4935500;29;20427;-82
2024/01/15 08:20:15;;;;;;;5.93;0.83;;;;;;;;;;4936863;29;20948;-82
2024/01/15 08:22:44;;;;;;;15.03;1.67;;;;;;;;;;4936879;29;20423;-83
2024/01/15 08:25:10;;;;;;;3.80;1.03;;;;;;;;;;4935739;29;20464;-82
2024/01/15 08:27:36;;;;;;;6.67;1.00;;;;;;;;;;4936951;29;20449;-81
2024/01/15 08:30:04;;;;;;;13.17;1.13;;;;;;;;;;4936411;29;20776;-82
2024/01/15 08:32:30;;;;;;;4.60;1.40;;;;;;;;;;4936763;29;20481;-83
2024/01/15 08:34:55;;;;;;;5.60;2.40;;;;;;;;;;4935974;29;20469;-82
2024/01/15 08:37:21;;;;;;;5.77;0.40;;;;;;;;;;4936991;29;20895;-92
2024/01/15 08:39:47;;;;;;;4.93;0.50;;;;;;;;;;4936105;29;20449;-82
2024/01/15 08:42:13;;;;;;;6.97;0.87;;;;;;;;;;4936464;29;20434;-85
2024/01/15 08:44:40;;;;;;;5.43;1.60;;;;;;;;;;4938150;29;20504;-86
2024/01/15 08:47:06;;;;;;;2.33;0.70;;;;;;;;;;4937793;29;20838;-85
2024/01/15 08:49:32;;;;;;;5.27;0.50;;;;;;;;;;4936359;29;20414;-85
2024/01/15 08:51:58;;;;;;;3.07;0.73;;;;;;;;;;4937343;29;20471;-88
2024/01/15 08:54:24;;;;;;;6.67;1.00;;;;;;;;;;4936116;29;21013;-86
2024/01/15 08:56:50;;;;;;;3.37;1.10;;;;;;;;;;4936903;29;20440;-80
2024/01/15 08:59:16;;;;;;;4.30;0.80;;;;;;;;;;4935935;29;20516;-80
2024/01/15 09:01:42;;;;;;;2.93;1.23;;;;;;;;;;4901686;29;21515;-79
2024/01/15 09:04:08;;;;;;;5.90;0.80;;;;;;;;;;4955338;28;20511;-86
2024/01/15 09:06:34;;;;;;;4.77;0.90;;;;;;;;;;4955663;28;20410;-81
2024/01/15 09:09:02;;;;;;;7.43;0.90;;;;;;;;;;4955448;28;20771;-84
2024/01/15 09:11:28;;;;;;;5.23;0.87;;;;;;;;;;4955285;28;20414;-81
2024/01/15 09:13:54;;;;;;;3.07;0.77;;;;;;;;;;4970157;28;20475;-82
2024/01/15 09:16:20;;;;;;;3.80;0.67;;;;;;;;;;4955450;28;20757;-82
2024/01/15 09:18:46;;;;;;;1.90;0.73;;;;;;;;;;4955392;28;20489;-79
2024/01/15 09:21:12;;;;;;;2.43;0.60;;;;;;;;;;4955264;28;20414;-79
2024/01/15 09:23:38;;;;;;;5.17;0.57;;;;;;;;;;4955319;28;20953;-80
2024/01/15 09:26:04;;;;;;;2.40;0.40;;;;;;;;;;4954893;28;20561;-80
2024/01/15 09:28:30;;;;;;;4.53;1.03;;;;;;;;;;4954922;28;20498;-81
2024/01/15 09:30:56;;;;;;;2.00;0.30;;;;;;;;;;4970067;28;20919;-81
2024/01/15 09:33:22;;;;;;;5.03;1.03;;;;;;;;;;4969858;28;20420;-80
2024/01/15 09:35:48;;;;;;;2.83;0.50;;;;;;;;;;4955221;28;20765;-80
2024/01/15 09:38:14;;;;;;;4.63;1.20;;;;;;;;;;4955164;28;20433;-81
2024/01/15 09:40:43;;;;;;;4.67;0.93;;;;;;;;;;4954749;28;20424;-82
2024/01/15 09:43:09;;;;;;;3.93;1.03;;;;;;;;;;4969951;28;20950;-82
2024/01/15 09:45:36;;;;;;;8.27;0.93;;;;;;;;;;4954900;28;20438;-81
2024/01/15 09:48:02;;;;;;;7.03;1.07;;;;;;;;;;4954980;28;20452;-86
2024/01/15 09:50:28;;;;;;;4.10;0.33;;;;;;;;;;4955403;28;20410;-84
2024/01/15 09:52:57;;;;;;;5.70;0.30;;;;;;;;;;4954925;28;20891;-80
2024/01/15 09:55:23;;;;;;;3.13;0.77;;;;;;;;;;4940173;28;20491;-81
2024/01/15 09:57:50;;;;;;;1.70;0.50;;;;;;;;;;4935828;29;20413;-82
2024/01/15 10:00:19;;;;;;;3.07;0.80;;;;;;;;;;4935414;29;20421;-81
2024/01/15 10:02:45;;;;;;;4.40;0.60;;;;;;;;;;4935566;29;20460;-81
2024/01/15 10:05:11;;;;;;;2.20;0.73;;;;;;;;;;4935762;29;20822;-81
2024/01/15 10:07:39;;;;;;;3.80;0.80;;;;;;;;;;4935724;29;20407;-81
2024/01/15 10:10:07;;;;;;;2.90;0.87;;;;;;;;;;4935274;29;20908;-80
2024/01/15 10:12:33;;;;;;;8.70;1.13;;;;;;;;;;4935727;29;20554;-81
2024/01/15 10:14:59;;;;;;;2.63;0.73;;;;;;;;;;4935603;29;20479;-81
2024/01/15 10:17:27;;;;;;;4.20;0.70;;;;;;;;;;4935631;29;20909;-81
2024/01/15 10:19:53;;;;;;;3.43;0.67;;;;;;;;;;4935618;29;20464;-81
2024/01/15 10:22:19;;;;;;;3.60;0.40;;;;;;;;;;4934343;29;20437;-81
2024/01/15 10:24:48;;;;;;;2.00;0.60;;;;;;;;;;4935112;29;20422;-80
2024/01/15 10:27:14;;;;;;;6.63;0.93;;;;;;;;;;4935441;29;20405;-81
2024/01/15 10:29:41;;;;;;;4.70;0.80;;;;;;;;;;4935570;29;20420;-80
2024/01/15 10:32:08;;;;;;;4.70;1.90;;;;;;;;;;4935447;29;20437;-80
2024/01/15 10:34:38;;;;;;;3.30;1.60;;;;;;;;;;4935369;29;20570;-80
2024/01/15 10:37:04;;;;;;;3.03;1.50;;;;;;;;;;4935439;29;20413;-81
2024/01/15 10:39:30;;;;;;;2.73;0.70;;;;;;;;;;4936516;29;20424;-81
2024/01/15 10:41:56;;;;;;;1.80;0.53;;;;;;;;;;4939171;29;20780;-81
2024/01/15 10:44:22;;;;;;;3.33;0.93;;;;;;;;;;4939047;29;20410;-81
2024/01/15 10:46:48;;;;;;;1.50;0.90;;;;;;;;;;4939090;29;20425;-81
2024/01/15 10:49:14;;;;;;;1.53;0.47;;;;;;;;;;4938928;29;20410;-82
2024/01/15 10:51:40;;;;;;;1.50;0.47;;;;;;;;;;4938966;29;20420;-82
2024/01/15 10:54:10;;;;;;;2.10;1.33;;;;;;;;;;4938570;29;20471;-82
2024/01/15 10:56:36;;;;;;;2.43;1.13;;;;;;;;;;4938798;29;20431;-82
2024/01/15 10:59:02;;;;;;;1.90;0.70;;;;;;;;;;4938790;29;20417;-81
2024/01/15 11:01:29;;;;;;;4.70;0.50;;;;;;;;;;4938510;29;20886;-81
2024/01/15 11:03:57;;;;;;;3.07;0.43;;;;;;;;;;4953505;29;20437;-81
2024/01/15 11:06:24;;;;;;;0.70;0.40;;;;;;;;;;4912243;29;20790;-82
2024/01/15 11:08:50;;;;;;;2.80;1.10;;;;;;;;;;4957775;28;20768;-86
2024/01/15 11:11:17;;;;;;;1.53;0.57;;;;;;;;;;4957420;28;20815;-85
2024/01/15 11:13:44;;;;;;;4.23;0.70;;;;;;;;;;4957537;28;20464;-84
2024/01/15 11:16:13;;;;;;;1.43;0.43;;;;;;;;;;4957584;28;20448;-85
2024/01/15 11:18:57;;;;;;;2.43;0.60;;;;;;;;;;4972574;28;20415;-85
2024/01/15 11:21:25;;;;;;;1.87;0.30;;;;;;;;;;4957649;28;20420;-84
2024/01/15 11:23:56;;;;;;;1.23;0.50;;;;;;;;;;4957245;28;20409;-84
2024/01/15 11:26:29;;;;;;;1.13;0.40;;;;;;;;;;4957598;28;20819;-86
2024/01/15 11:28:57;;;;;;;1.37;0.47;;;;;;;;;;4957292;28;20418;-87
2024/01/15 11:31:41;;;;;;;2.10;0.83;;;;;;;;;;4972330;28;20408;-88
2024/01/15 11:34:08;;;;;;;2.07;0.70;;;;;;;;;;4957159;28;20495;-87
2024/01/15 11:36:46;;;;;;;2.17;0.80;;;;;;;;;;4957252;28;20420;-87
2024/01/15 11:39:27;;;;;;;1.57;0.30;;;;;;;;;;4957069;28;20499;-81
2024/01/15 11:41:57;;;;;;;0.80;0.43;;;;;;;;;;4957142;28;20475;-87
2024/01/15 11:44:23;;;;;;;1.23;0.70;;;;;;;;;;4957281;28;20417;-84
2024/01/15 11:46:59;;;;;;;2.93;1.03;;;;;;;;;;4957145;28;20436;-87
2024/01/15 11:49:44;;;;;;;0.57;0.30;;;;;;;;;;4957071;28;20465;-83
2024/01/15 11:52:11;;;;;;;0.50;0.20;;;;;;;;;;4957029;28;20409;-84
2024/01/15 11:54:38;;;;;;;1.97;0.60;;;;;;;;;;4956456;28;20483;-81
2024/01/15 11:57:08;;;;;;;3.47;0.73;;;;;;;;;;4956852;28;20413;-86
2024/01/15 11:59:34;;;;;;;0.63;0.20;;;;;;;;;;4956889;28;20503;-86
2024/01/15 12:02:00;;;;;;;2.40;0.50;;;;;;;;;;4956545;28;20473;-86
2024/01/15 12:04:26;;;;;;;3.30;0.50;;;;;;;;;;4957023;28;20412;-86
2024/01/15 12:06:52;;;;;;;0.93;0.50;;;;;;;;;;4903452;28;20429;-85
2024/01/15 12:09:21;;;;;;;1.17;0.60;;;;;;;;;;4937276;29;20993;-87
2024/01/15 12:11:50;;;;;;;0.50;0.20;;;;;;;;;;4937831;28;20463;-87
2024/01/15 12:14:16;;;;;;;1.17;0.40;;;;;;;;;;4937563;29;20555;-86
2024/01/15 12:16:42;;;;;;;1.00;0.30;;;;;;;;;;4937510;29;20450;-84
2024/01/15 12:19:08;;;;;;;1.63;0.53;;;;;;;;;;4937569;29;20952;-84
2024/01/15 12:21:33;;;;;;;0.50;0.30;;;;;;;;;;4937216;29;20427;-84
2024/01/15 12:24:00;;;;;;;3.10;0.43;;;;;;;;;;4937183;29;20700;-87
2024/01/15 12:26:26;;;;;;;0.80;0.33;;;;;;;;;;4952420;28;20528;-81
2024/01/15 12:28:51;;;;;;;0.63;0.43;;;;;;;;;;4951928;28;20441;-83
2024/01/15 12:31:19;;;;;;;2.20;0.57;;;;;;;;;;4937124;29;20418;-80
2024/01/15 12:33:45;;;;;;;2.40;0.43;;;;;;;;;;4936941;29;20818;-83
2024/01/15 12:36:13;;;;;;;2.07;0.60;;;;;;;;;;4951889;28;20422;-82
2024/01/15 12:38:39;;;;;;;2.10;0.73;;;;;;;;;;4936664;29;20418;-81
2024/01/15 12:41:05;;;;;;;2.00;0.87;;;;;;;;;;4936947;29;20423;-83
2024/01/15 12:43:31;;;;;;;1.87;0.50;;;;;;;;;;4951670;28;20410;-84
2024/01/15 12:45:57;;;;;;;4.30;1.17;;;;;;;;;;4940517;29;20435;-81
2024/01/15 12:48:23;;;;;;;3.20;1.13;;;;;;;;;;4955718;28;20815;-85
2024/01/15 12:50:49;;;;;;;2.47;1.03;;;;;;;;;;4955833;28;20421;-80
2024/01/15 12:53:15;;;;;;;3.17;2.00;;;;;;;;;;4955901;28;20412;-83
2024/01/15 12:55:41;;;;;;;3.47;1.40;;;;;;;;;;4955496;28;20467;-84
2024/01/15 12:58:07;;;;;;;2.90;1.40;;;;;;;;;;4955791;28;20405;-84
2024/01/15 13:00:36;;;;;;;6.83;1.40;;;;;;;;;;4955812;28;20835;-83
2024/01/15 13:03:03;;;;;;;4.50;1.23;;;;;;;;;;4969845;28;20951;-84
2024/01/15 13:05:30;;;;;;;5.67;1.53;;;;;;;;;;4955666;28;20475;-83
2024/01/15 13:07:56;;;;;;;3.70;0.87;;;;;;;;;;4955666;28;20413;-82
2024/01/15 13:10:21;;;;;;;4.43;1.40;;;;;;;;;;4955216;28;20486;-84
2024/01/15 13:12:47;;;;;;;5.30;2.03;;;;;;;;;;4914970;28;20448;-85
2024/01/15 13:15:13;;;;;;;1.70;0.57;;;;;;;;;;4955422;28;20535;-84
2024/01/15 13:17:40;;;;;;;3.40;1.17;;;;;;;;;;4955436;28;20829;-84
2024/01/15 13:20:06;;;;;;;3.03;1.07;;;;;;;;;;4955485;28;20417;-84
2024/01/15 13:22:32;;;;;;;1.73;1.40;;;;;;;;;;4955383;28;20428;-84
2024/01/15 13:24:59;;;;;;;2.00;0.50;;;;;;;;;;4954753;28;20423;-83
2024/01/15 13:27:31;;;;;;;4.17;1.00;;;;;;;;;;4955327;28;20414;-84
2024/01/15 13:29:57;;;;;;;3.30;0.73;;;;;;;;;;4955153;28;20431;-84
2024/01/15 13:32:26;;;;;;;2.50;0.97;;;;;;;;;;4955069;28;20423;-81
2024/01/15 13:34:52;;;;;;;2.30;0.87;;;;;;;;;;4969897;28;20485;-84
2024/01/15 13:37:18;;;;;;;1.97;1.50;;;;;;;;;;4969949;28;20422;-84
2024/01/15 13:39:44;;;;;;;7.37;1.80;;;;;;;;;;4969540;28;20436;-83
2024/01/15 13:42:11;;;;;;;7.90;1.40;;;;;;;;;;4969836;28;20788;-84
2024/01/15 13:44:37;;;;;;;1.40;0.47;;;;;;;;;;4955200;28;20974;-83
2024/01/15 13:47:05;;;;;;;4.03;1.87;;;;;;;;;;4954960;28;20529;-83
2024/01/15 13:49:30;;;;;;;2.40;1.20;;;;;;;;;;4935684;28;20917;-83
2024/01/15 13:51:57;;;;;;;1.80;1.37;;;;;;;;;;4924899;29;20483;-84
2024/01/15 13:54:23;;;;;;;8.13;1.50;;;;;;;;;;4925352;29;20467;-84
2024/01/15 13:56:49;;;;;;;3.77;1.30;;;;;;;;;;4926312;29;20927;-83
2024/01/15 13:59:15;;;;;;;3.70;1.60;;;;;;;;;;4924716;29;20405;-84
2024/01/15 14:01:42;;;;;;;2.20;1.53;;;;;;;;;;4920921;29;20515;-84
2024/01/15 14:04:08;;;;;;;3.37;1.30;;;;;;;;;;4916795;29;20418;-84
2024/01/15 14:06:34;;;;;;;4.20;2.17;;;;;;;;;;4916704;29;20473;-84
2024/01/15 14:09:00;;;;;;;3.97;2.63;;;;;;;;;;4921111;29;20502;-83
2024/01/15 14:11:29;;;;;;;3.63;2.10;;;;;;;;;;4925042;29;20417;-83
2024/01/15 14:13:55;;;;;;;6.47;2.20;;;;;;;;;;4906758;28;20473;-82
2024/01/15 14:16:21;;;;;;;8.23;2.13;;;;;;;;;;4930366;29;20485;-83
2024/01/15 14:18:47;;;;;;;5.37;3.50;;;;;;;;;;4922915;29;20413;-84
2024/01/15 14:21:13;;;;;;;8.80;2.50;;;;;;;;;;4920507;29;20947;-84
2024/01/15 14:23:39;;;;;;;6.40;1.83;;;;;;;;;;4919833;29;20453;-84
2024/01/15 14:26:05;;;;;;;5.63;3.17;;;;;;;;;;4920491;29;20422;-84
2024/01/15 14:28:31;;;;;;;6.93;3.50;;;;;;;;;;4932466;29;20422;-84
2024/01/15 14:30:59;;;;;;;4.87;3.20;;;;;;;;;;4936432;28;20933;-84
2024/01/15 14:33:25;;;;;;;8.13;3.57;;;;;;;;;;4941731;29;20948;-81
2024/01/15 14:35:51;;;;;;;7.70;3.53;;;;;;;;;;4945038;29;20439;-82